sensor_id;sensor_type;location;lat;lon;timestamp;P1;durP1;ratioP1;P2;durP2;ratioP2
37885;SDS011;23726;52.520;13.434;2022-08-04T00:02:23;17.48;;;11.90;;
37885;SDS011;23726;52.520;13.434;2022-08-04T00:05:05;16.13;;;11.60;;
37885;SDS011;23726;52.520;13.434;2022-08-04T00:07:41;15.35;;;11.20;;
37885;SDS011;23726;52.520;13.434;2022-08-04T00:10:11;18.02;;;11.60;;
37885;SDS011;23726;52.520;13.434;2022-08-04T00:12:41;16.98;;;11.43;;
37885;SDS011;23726;52.520;13.434;2022-08-04T00:15:12;15.43;;;10.45;;
37885;SDS011;23726;52.520;13.434;2022-08-04T00:17:40;17.60;;;11.50;;
37885;SDS011;23726;52.520;13.434;2022-08-04T00:20:11;18.35;;;11.27;;
37885;SDS011;23726;52.520;13.434;2022-08-04T00:22:40;17.45;;;11.50;;
37885;SDS011;23726;52.520;13.434;2022-08-04T00:25:09;15.70;;;10.88;;
37885;SDS011;23726;52.520;13.434;2022-08-04T00:27:35;17.48;;;10.85;;
37885;SDS011;23726;52.520;13.434;2022-08-04T00:30:01;17.52;;;11.02;;
37885;SDS011;23726;52.520;13.434;2022-08-04T00:32:28;17.30;;;11.45;;
37885;SDS011;23726;52.520;13.434;2022-08-04T00:34:54;18.17;;;11.23;;
37885;SDS011;23726;52.520;13.434;2022-08-04T00:37:22;18.52;;;10.95;;
37885;SDS011;23726;52.520;13.434;2022-08-04T00:39:49;16.88;;;11.38;;
37885;SDS011;23726;52.520;13.434;2022-08-04T00:50:28;15.30;;;10.68;;
37885;SDS011;23726;52.520;13.434;2022-08-04T00:53:13;16.73;;;10.52;;
37885;SDS011;23726;52.520;13.434;2022-08-04T00:58:46;14.05;;;10.38;;
37885;SDS011;23726;52.520;13.434;2022-08-04T01:02:00;17.23;;;10.70;;
37885;SDS011;23726;52.520;13.434;2022-08-04T01:04:44;15.20;;;11.10;;
37885;SDS011;23726;52.520;13.434;2022-08-04T01:07:24;15.43;;;10.60;;
37885;SDS011;23726;52.520;13.434;2022-08-04T01:10:04;16.00;;;11.10;;
37885;SDS011;23726;52.520;13.434;2022-08-04T01:12:57;15.38;;;10.93;;
37885;SDS011;23726;52.520;13.434;2022-08-04T01:15:53;15.98;;;10.48;;
37885;SDS011;23726;52.520;13.434;2022-08-04T01:24:23;13.50;;;10.00;;
37885;SDS011;23726;52.520;13.434;2022-08-04T01:30:03;16.30;;;10.50;;
37885;SDS011;23726;52.520;13.434;2022-08-04T01:32:35;14.13;;;9.73;;
37885;SDS011;23726;52.520;13.434;2022-08-04T01:40:13;14.93;;;10.95;;
37885;SDS011;23726;52.520;13.434;2022-08-04T01:42:40;15.70;;;9.63;;
37885;SDS011;23726;52.520;13.434;2022-08-04T01:45:08;13.98;;;9.98;;
37885;SDS011;23726;52.520;13.434;2022-08-04T01:47:35;15.75;;;10.27;;
37885;SDS011;23726;52.520;13.434;2022-08-04T01:50:10;15.50;;;10.63;;
37885;SDS011;23726;52.520;13.434;2022-08-04T01:52:37;14.60;;;9.82;;
37885;SDS011;23726;52.520;13.434;2022-08-04T01:55:05;16.25;;;10.32;;
37885;SDS011;23726;52.520;13.434;2022-08-04T01:57:34;12.90;;;9.90;;
37885;SDS011;23726;52.520;13.434;2022-08-04T02:00:05;13.52;;;10.20;;
37885;SDS011;23726;52.520;13.434;2022-08-04T02:02:31;12.85;;;9.63;;
37885;SDS011;23726;52.520;13.434;2022-08-04T02:04:58;13.77;;;9.75;;
37885;SDS011;23726;52.520;13.434;2022-08-04T02:10:16;13.50;;;9.38;;
37885;SDS011;23726;52.520;13.434;2022-08-04T02:13:37;13.70;;;9.98;;
37885;SDS011;23726;52.520;13.434;2022-08-04T02:15:57;13.18;;;9.73;;
37885;SDS011;23726;52.520;13.434;2022-08-04T02:18:38;13.88;;;9.23;;
37885;SDS011;23726;52.520;13.434;2022-08-04T02:21:22;13.68;;;9.75;;
37885;SDS011;23726;52.520;13.434;2022-08-04T02:23:50;12.98;;;9.13;;
37885;SDS011;23726;52.520;13.434;2022-08-04T02:26:20;13.70;;;9.70;;
37885;SDS011;23726;52.520;13.434;2022-08-04T02:28:47;14.68;;;9.43;;
37885;SDS011;23726;52.520;13.434;2022-08-04T02:31:30;12.77;;;9.25;;
37885;SDS011;23726;52.520;13.434;2022-08-04T02:34:00;13.57;;;9.75;;
37885;SDS011;23726;52.520;13.434;2022-08-04T02:36:29;14.20;;;9.52;;
37885;SDS011;23726;52.520;13.434;2022-08-04T02:41:28;12.32;;;9.73;;
37885;SDS011;23726;52.520;13.434;2022-08-04T02:43:55;13.27;;;9.50;;
37885;SDS011;23726;52.520;13.434;2022-08-04T02:46:23;12.88;;;10.00;;
37885;SDS011;23726;52.520;13.434;2022-08-04T02:48:50;15.32;;;10.10;;
37885;SDS011;23726;52.520;13.434;2022-08-04T02:51:19;12.45;;;9.32;;
37885;SDS011;23726;52.520;13.434;2022-08-04T02:53:48;11.75;;;9.02;;
37885;SDS011;23726;52.520;13.434;2022-08-04T02:56:17;12.90;;;9.27;;
37885;SDS011;23726;52.520;13.434;2022-08-04T02:58:45;13.85;;;9.27;;
37885;SDS011;23726;52.520;13.434;2022-08-04T03:01:17;12.27;;;9.50;;
37885;SDS011;23726;52.520;13.434;2022-08-04T03:03:47;12.10;;;9.02;;
37885;SDS011;23726;52.520;13.434;2022-08-04T03:14:58;12.77;;;9.43;;
37885;SDS011;23726;52.520;13.434;2022-08-04T03:26:28;14.85;;;8.85;;
37885;SDS011;23726;52.520;13.434;2022-08-04T03:29:22;13.93;;;9.43;;
37885;SDS011;23726;52.520;13.434;2022-08-04T03:38:09;12.15;;;8.50;;
37885;SDS011;23726;52.520;13.434;2022-08-04T03:40:57;11.77;;;8.80;;
37885;SDS011;23726;52.520;13.434;2022-08-04T03:46:24;14.50;;;8.98;;
37885;SDS011;23726;52.520;13.434;2022-08-04T03:52:05;12.65;;;9.27;;
37885;SDS011;23726;52.520;13.434;2022-08-04T03:55:29;12.48;;;8.30;;
37885;SDS011;23726;52.520;13.434;2022-08-04T03:58:10;12.95;;;9.32;;
37885;SDS011;23726;52.520;13.434;2022-08-04T04:00:58;11.95;;;8.30;;
37885;SDS011;23726;52.520;13.434;2022-08-04T04:09:04;12.55;;;8.98;;
37885;SDS011;23726;52.520;13.434;2022-08-04T04:17:56;11.88;;;8.57;;
37885;SDS011;23726;52.520;13.434;2022-08-04T04:26:36;10.50;;;8.45;;
37885;SDS011;23726;52.520;13.434;2022-08-04T04:37:42;11.65;;;8.63;;
37885;SDS011;23726;52.520;13.434;2022-08-04T04:40:24;11.20;;;8.57;;
37885;SDS011;23726;52.520;13.434;2022-08-04T04:48:40;13.70;;;9.35;;
37885;SDS011;23726;52.520;13.434;2022-08-04T04:57:12;10.57;;;8.35;;
37885;SDS011;23726;52.520;13.434;2022-08-04T04:59:44;9.80;;;8.05;;
37885;SDS011;23726;52.520;13.434;2022-08-04T05:02:27;11.65;;;8.65;;
37885;SDS011;23726;52.520;13.434;2022-08-04T05:13:43;11.13;;;8.63;;
37885;SDS011;23726;52.520;13.434;2022-08-04T05:19:01;12.07;;;8.15;;
37885;SDS011;23726;52.520;13.434;2022-08-04T05:21:51;10.18;;;7.57;;
37885;SDS011;23726;52.520;13.434;2022-08-04T05:24:23;10.40;;;7.78;;
37885;SDS011;23726;52.520;13.434;2022-08-04T05:26:52;10.05;;;8.18;;
37885;SDS011;23726;52.520;13.434;2022-08-04T05:29:45;11.00;;;7.85;;
37885;SDS011;23726;52.520;13.434;2022-08-04T05:32:19;12.10;;;8.60;;
37885;SDS011;23726;52.520;13.434;2022-08-04T05:34:59;9.80;;;8.38;;
37885;SDS011;23726;52.520;13.434;2022-08-04T05:37:29;11.50;;;8.25;;
37885;SDS011;23726;52.520;13.434;2022-08-04T05:39:57;10.38;;;7.60;;
37885;SDS011;23726;52.520;13.434;2022-08-04T05:42:28;13.82;;;8.60;;
37885;SDS011;23726;52.520;13.434;2022-08-04T05:44:57;10.63;;;7.97;;
37885;SDS011;23726;52.520;13.434;2022-08-04T05:47:24;10.60;;;8.23;;
37885;SDS011;23726;52.520;13.434;2022-08-04T05:49:50;10.32;;;8.18;;
37885;SDS011;23726;52.520;13.434;2022-08-04T05:52:17;9.35;;;7.68;;
37885;SDS011;23726;52.520;13.434;2022-08-04T05:54:44;9.63;;;7.35;;
37885;SDS011;23726;52.520;13.434;2022-08-04T05:57:11;9.70;;;7.88;;
37885;SDS011;23726;52.520;13.434;2022-08-04T05:59:39;10.73;;;8.48;;
37885;SDS011;23726;52.520;13.434;2022-08-04T06:02:10;10.80;;;8.38;;
37885;SDS011;23726;52.520;13.434;2022-08-04T06:04:40;9.65;;;7.68;;
37885;SDS011;23726;52.520;13.434;2022-08-04T06:07:08;9.25;;;7.82;;
37885;SDS011;23726;52.520;13.434;2022-08-04T06:09:37;11.82;;;8.40;;
37885;SDS011;23726;52.520;13.434;2022-08-04T06:12:04;10.75;;;8.15;;
37885;SDS011;23726;52.520;13.434;2022-08-04T06:14:43;10.75;;;7.55;;
37885;SDS011;23726;52.520;13.434;2022-08-04T06:17:13;9.98;;;7.60;;
37885;SDS011;23726;52.520;13.434;2022-08-04T06:19:43;9.40;;;7.97;;
37885;SDS011;23726;52.520;13.434;2022-08-04T06:22:09;10.45;;;7.80;;
37885;SDS011;23726;52.520;13.434;2022-08-04T06:24:38;10.23;;;7.80;;
37885;SDS011;23726;52.520;13.434;2022-08-04T06:27:05;8.57;;;7.45;;
37885;SDS011;23726;52.520;13.434;2022-08-04T06:29:32;10.93;;;8.65;;
37885;SDS011;23726;52.520;13.434;2022-08-04T06:32:03;9.90;;;7.78;;
37885;SDS011;23726;52.520;13.434;2022-08-04T06:34:51;10.10;;;7.80;;
37885;SDS011;23726;52.520;13.434;2022-08-04T06:37:27;10.18;;;7.80;;
37885;SDS011;23726;52.520;13.434;2022-08-04T06:39:53;10.60;;;7.60;;
37885;SDS011;23726;52.520;13.434;2022-08-04T06:42:21;9.35;;;8.07;;
37885;SDS011;23726;52.520;13.434;2022-08-04T06:44:50;9.18;;;7.75;;
37885;SDS011;23726;52.520;13.434;2022-08-04T06:47:20;11.30;;;8.02;;
37885;SDS011;23726;52.520;13.434;2022-08-04T06:49:47;11.25;;;8.00;;
37885;SDS011;23726;52.520;13.434;2022-08-04T06:52:15;10.98;;;7.90;;
37885;SDS011;23726;52.520;13.434;2022-08-04T06:54:44;8.45;;;7.43;;
37885;SDS011;23726;52.520;13.434;2022-08-04T06:57:13;9.05;;;7.47;;
37885;SDS011;23726;52.520;13.434;2022-08-04T06:59:41;8.63;;;7.30;;
37885;SDS011;23726;52.520;13.434;2022-08-04T07:02:11;9.90;;;7.88;;
37885;SDS011;23726;52.520;13.434;2022-08-04T07:04:41;11.20;;;7.88;;
37885;SDS011;23726;52.520;13.434;2022-08-04T07:07:07;11.05;;;7.10;;
37885;SDS011;23726;52.520;13.434;2022-08-04T07:09:34;9.90;;;8.23;;
37885;SDS011;23726;52.520;13.434;2022-08-04T07:12:00;8.73;;;7.38;;
37885;SDS011;23726;52.520;13.434;2022-08-04T07:14:27;8.23;;;7.13;;
37885;SDS011;23726;52.520;13.434;2022-08-04T07:16:53;10.07;;;7.93;;
37885;SDS011;23726;52.520;13.434;2022-08-04T07:19:20;9.95;;;7.35;;
37885;SDS011;23726;52.520;13.434;2022-08-04T07:21:45;9.90;;;7.47;;
37885;SDS011;23726;52.520;13.434;2022-08-04T07:24:11;9.98;;;7.38;;
37885;SDS011;23726;52.520;13.434;2022-08-04T07:26:39;9.52;;;7.25;;
37885;SDS011;23726;52.520;13.434;2022-08-04T07:29:06;9.63;;;7.72;;
37885;SDS011;23726;52.520;13.434;2022-08-04T07:31:31;9.75;;;7.70;;
37885;SDS011;23726;52.520;13.434;2022-08-04T07:33:59;9.65;;;7.38;;
37885;SDS011;23726;52.520;13.434;2022-08-04T07:36:25;10.20;;;8.15;;
37885;SDS011;23726;52.520;13.434;2022-08-04T07:38:51;9.07;;;7.18;;
37885;SDS011;23726;52.520;13.434;2022-08-04T07:41:21;9.40;;;7.22;;
37885;SDS011;23726;52.520;13.434;2022-08-04T07:43:48;10.90;;;7.43;;
37885;SDS011;23726;52.520;13.434;2022-08-04T07:46:14;9.63;;;7.93;;
37885;SDS011;23726;52.520;13.434;2022-08-04T07:48:40;8.63;;;7.28;;
37885;SDS011;23726;52.520;13.434;2022-08-04T07:51:06;11.13;;;7.20;;
37885;SDS011;23726;52.520;13.434;2022-08-04T07:53:32;9.45;;;7.47;;
37885;SDS011;23726;52.520;13.434;2022-08-04T07:55:58;9.55;;;7.80;;
37885;SDS011;23726;52.520;13.434;2022-08-04T07:58:25;9.68;;;7.30;;
37885;SDS011;23726;52.520;13.434;2022-08-04T08:00:52;7.93;;;6.93;;
37885;SDS011;23726;52.520;13.434;2022-08-04T08:03:18;8.55;;;6.80;;
37885;SDS011;23726;52.520;13.434;2022-08-04T08:05:44;8.82;;;7.53;;
37885;SDS011;23726;52.520;13.434;2022-08-04T08:08:10;10.15;;;7.68;;
37885;SDS011;23726;52.520;13.434;2022-08-04T08:10:36;8.63;;;7.13;;
37885;SDS011;23726;52.520;13.434;2022-08-04T08:13:03;9.82;;;7.15;;
37885;SDS011;23726;52.520;13.434;2022-08-04T08:15:29;8.80;;;6.70;;
37885;SDS011;23726;52.520;13.434;2022-08-04T08:17:55;9.80;;;6.93;;
37885;SDS011;23726;52.520;13.434;2022-08-04T08:20:20;9.40;;;7.32;;
37885;SDS011;23726;52.520;13.434;2022-08-04T08:22:46;7.93;;;7.03;;
37885;SDS011;23726;52.520;13.434;2022-08-04T08:25:12;8.98;;;7.22;;
37885;SDS011;23726;52.520;13.434;2022-08-04T08:27:37;8.57;;;7.07;;
37885;SDS011;23726;52.520;13.434;2022-08-04T08:30:03;8.35;;;6.82;;
37885;SDS011;23726;52.520;13.434;2022-08-04T08:32:29;8.60;;;6.95;;
37885;SDS011;23726;52.520;13.434;2022-08-04T08:34:55;9.18;;;6.85;;
37885;SDS011;23726;52.520;13.434;2022-08-04T08:39:58;9.60;;;7.25;;
37885;SDS011;23726;52.520;13.434;2022-08-04T08:45:54;9.23;;;7.20;;
37885;SDS011;23726;52.520;13.434;2022-08-04T09:02:49;7.00;;;6.30;;
37885;SDS011;23726;52.520;13.434;2022-08-04T09:08:39;8.45;;;6.43;;
37885;SDS011;23726;52.520;13.434;2022-08-04T09:11:29;8.15;;;6.60;;
37885;SDS011;23726;52.520;13.434;2022-08-04T09:14:25;9.52;;;6.82;;
37885;SDS011;23726;52.520;13.434;2022-08-04T09:17:02;11.15;;;7.72;;
37885;SDS011;23726;52.520;13.434;2022-08-04T09:19:44;13.43;;;7.78;;
37885;SDS011;23726;52.520;13.434;2022-08-04T09:25:15;13.93;;;7.55;;
37885;SDS011;23726;52.520;13.434;2022-08-04T09:27:49;13.25;;;7.20;;
37885;SDS011;23726;52.520;13.434;2022-08-04T09:30:26;13.82;;;7.40;;
37885;SDS011;23726;52.520;13.434;2022-08-04T09:41:10;99.70;;;27.95;;
37885;SDS011;23726;52.520;13.434;2022-08-04T09:49:30;108.47;;;29.15;;
37885;SDS011;23726;52.520;13.434;2022-08-04T10:00:04;163.93;;;40.92;;
37885;SDS011;23726;52.520;13.434;2022-08-04T10:02:44;167.13;;;40.75;;
37885;SDS011;23726;52.520;13.434;2022-08-04T10:05:16;150.38;;;38.28;;
37885;SDS011;23726;52.520;13.434;2022-08-04T10:10:35;136.20;;;38.58;;
37885;SDS011;23726;52.520;13.434;2022-08-04T10:18:49;135.18;;;37.10;;
37885;SDS011;23726;52.520;13.434;2022-08-04T10:21:51;133.43;;;35.28;;
37885;SDS011;23726;52.520;13.434;2022-08-04T10:27:23;125.93;;;35.50;;
37885;SDS011;23726;52.520;13.434;2022-08-04T10:29:56;121.28;;;37.08;;
37885;SDS011;23726;52.520;13.434;2022-08-04T10:32:33;112.88;;;34.17;;
37885;SDS011;23726;52.520;13.434;2022-08-04T10:37:47;110.43;;;33.60;;
37885;SDS011;23726;52.520;13.434;2022-08-04T10:43:28;112.70;;;34.05;;
37885;SDS011;23726;52.520;13.434;2022-08-04T10:51:18;94.50;;;31.10;;
37885;SDS011;23726;52.520;13.434;2022-08-04T10:54:05;228.73;;;53.33;;
37885;SDS011;23726;52.520;13.434;2022-08-04T10:56:43;166.45;;;43.78;;
37885;SDS011;23726;52.520;13.434;2022-08-04T10:59:15;134.88;;;39.10;;
37885;SDS011;23726;52.520;13.434;2022-08-04T11:02:21;137.93;;;38.67;;
37885;SDS011;23726;52.520;13.434;2022-08-04T11:04:58;140.63;;;39.70;;
37885;SDS011;23726;52.520;13.434;2022-08-04T11:07:34;138.48;;;40.08;;
37885;SDS011;23726;52.520;13.434;2022-08-04T11:10:03;126.80;;;37.75;;
37885;SDS011;23726;52.520;13.434;2022-08-04T11:12:30;133.05;;;38.85;;
37885;SDS011;23726;52.520;13.434;2022-08-04T11:15:00;117.07;;;36.78;;
37885;SDS011;23726;52.520;13.434;2022-08-04T11:17:31;130.73;;;37.03;;
37885;SDS011;23726;52.520;13.434;2022-08-04T11:20:02;129.15;;;36.67;;
37885;SDS011;23726;52.520;13.434;2022-08-04T11:22:40;114.60;;;34.72;;
37885;SDS011;23726;52.520;13.434;2022-08-04T11:25:17;121.25;;;36.90;;
37885;SDS011;23726;52.520;13.434;2022-08-04T11:30:52;112.85;;;35.22;;
37885;SDS011;23726;52.520;13.434;2022-08-04T11:33:34;114.18;;;34.97;;
37885;SDS011;23726;52.520;13.434;2022-08-04T11:39:05;112.68;;;34.97;;
37885;SDS011;23726;52.520;13.434;2022-08-04T11:41:41;108.55;;;32.92;;
37885;SDS011;23726;52.520;13.434;2022-08-04T11:47:18;115.32;;;33.17;;
37885;SDS011;23726;52.520;13.434;2022-08-04T11:49:51;97.25;;;33.22;;
37885;SDS011;23726;52.520;13.434;2022-08-04T11:52:23;106.85;;;33.47;;
37885;SDS011;23726;52.520;13.434;2022-08-04T11:54:51;103.97;;;33.78;;
37885;SDS011;23726;52.520;13.434;2022-08-04T11:57:19;105.13;;;33.83;;
37885;SDS011;23726;52.520;13.434;2022-08-04T11:59:46;91.93;;;32.38;;
37885;SDS011;23726;52.520;13.434;2022-08-04T12:04:55;95.95;;;32.83;;
37885;SDS011;23726;52.520;13.434;2022-08-04T12:10:35;96.25;;;32.95;;
37885;SDS011;23726;52.520;13.434;2022-08-04T12:15:56;93.70;;;31.77;;
37885;SDS011;23726;52.520;13.434;2022-08-04T12:18:38;94.10;;;31.95;;
37885;SDS011;23726;52.520;13.434;2022-08-04T12:21:32;92.20;;;31.65;;
37885;SDS011;23726;52.520;13.434;2022-08-04T12:24:01;84.47;;;29.00;;
37885;SDS011;23726;52.520;13.434;2022-08-04T12:26:34;87.32;;;31.52;;
37885;SDS011;23726;52.520;13.434;2022-08-04T12:29:04;95.63;;;30.75;;
37885;SDS011;23726;52.520;13.434;2022-08-04T12:39:37;78.65;;;27.55;;
37885;SDS011;23726;52.520;13.434;2022-08-04T12:42:12;91.72;;;30.10;;
37885;SDS011;23726;52.520;13.434;2022-08-04T12:44:43;90.13;;;30.98;;
37885;SDS011;23726;52.520;13.434;2022-08-04T12:47:13;86.95;;;28.55;;
37885;SDS011;23726;52.520;13.434;2022-08-04T12:49:41;76.18;;;29.95;;
37885;SDS011;23726;52.520;13.434;2022-08-04T12:52:10;82.72;;;29.85;;
37885;SDS011;23726;52.520;13.434;2022-08-04T12:54:39;79.85;;;29.55;;
37885;SDS011;23726;52.520;13.434;2022-08-04T12:57:07;83.72;;;28.95;;
37885;SDS011;23726;52.520;13.434;2022-08-04T12:59:45;70.13;;;27.63;;
37885;SDS011;23726;52.520;13.434;2022-08-04T13:02:13;79.38;;;27.85;;
37885;SDS011;23726;52.520;13.434;2022-08-04T13:04:50;75.65;;;27.98;;
37885;SDS011;23726;52.520;13.434;2022-08-04T13:07:19;72.63;;;26.83;;
37885;SDS011;23726;52.520;13.434;2022-08-04T13:09:47;79.90;;;29.63;;
37885;SDS011;23726;52.520;13.434;2022-08-04T13:12:15;73.90;;;28.38;;
37885;SDS011;23726;52.520;13.434;2022-08-04T13:14:43;76.80;;;29.13;;
37885;SDS011;23726;52.520;13.434;2022-08-04T13:17:12;73.97;;;27.55;;
37885;SDS011;23726;52.520;13.434;2022-08-04T13:19:38;76.00;;;28.55;;
37885;SDS011;23726;52.520;13.434;2022-08-04T13:22:09;70.95;;;26.88;;
37885;SDS011;23726;52.520;13.434;2022-08-04T13:24:35;77.20;;;27.88;;
37885;SDS011;23726;52.520;13.434;2022-08-04T13:27:06;75.20;;;28.77;;
37885;SDS011;23726;52.520;13.434;2022-08-04T13:29:40;72.80;;;27.83;;
37885;SDS011;23726;52.520;13.434;2022-08-04T13:32:08;66.22;;;26.48;;
37885;SDS011;23726;52.520;13.434;2022-08-04T13:34:35;73.43;;;26.98;;
37885;SDS011;23726;52.520;13.434;2022-08-04T13:37:05;65.72;;;26.50;;
37885;SDS011;23726;52.520;13.434;2022-08-04T13:39:32;72.35;;;25.92;;
37885;SDS011;23726;52.520;13.434;2022-08-04T13:41:59;68.65;;;26.20;;
37885;SDS011;23726;52.520;13.434;2022-08-04T13:44:31;65.97;;;26.35;;
37885;SDS011;23726;52.520;13.434;2022-08-04T13:47:03;64.30;;;25.83;;
37885;SDS011;23726;52.520;13.434;2022-08-04T13:49:31;70.95;;;26.98;;
37885;SDS011;23726;52.520;13.434;2022-08-04T13:52:00;65.47;;;24.95;;
37885;SDS011;23726;52.520;13.434;2022-08-04T13:57:05;62.88;;;26.27;;
37885;SDS011;23726;52.520;13.434;2022-08-04T13:59:41;59.00;;;25.08;;
37885;SDS011;23726;52.520;13.434;2022-08-04T14:05:00;55.78;;;24.60;;
37885;SDS011;23726;52.520;13.434;2022-08-04T14:07:33;61.10;;;24.88;;
37885;SDS011;23726;52.520;13.434;2022-08-04T14:10:09;61.88;;;24.35;;
37885;SDS011;23726;52.520;13.434;2022-08-04T14:12:41;57.67;;;25.70;;
37885;SDS011;23726;52.520;13.434;2022-08-04T14:15:09;58.00;;;24.65;;
37885;SDS011;23726;52.520;13.434;2022-08-04T14:18:01;59.63;;;24.60;;
37885;SDS011;23726;52.520;13.434;2022-08-04T14:20:56;63.95;;;25.23;;
37885;SDS011;23726;52.520;13.434;2022-08-04T14:23:29;62.92;;;25.35;;
37885;SDS011;23726;52.520;13.434;2022-08-04T14:26:14;60.30;;;23.42;;
37885;SDS011;23726;52.520;13.434;2022-08-04T14:28:49;61.05;;;24.58;;
37885;SDS011;23726;52.520;13.434;2022-08-04T14:31:17;56.55;;;23.92;;
37885;SDS011;23726;52.520;13.434;2022-08-04T14:33:48;60.17;;;23.23;;
37885;SDS011;23726;52.520;13.434;2022-08-04T14:36:14;56.60;;;23.45;;
37885;SDS011;23726;52.520;13.434;2022-08-04T14:38:42;56.38;;;23.50;;
37885;SDS011;23726;52.520;13.434;2022-08-04T14:41:08;60.33;;;24.55;;
37885;SDS011;23726;52.520;13.434;2022-08-04T14:46:29;55.78;;;24.17;;
37885;SDS011;23726;52.520;13.434;2022-08-04T14:49:13;55.83;;;24.02;;
37885;SDS011;23726;52.520;13.434;2022-08-04T14:51:50;53.72;;;22.98;;
37885;SDS011;23726;52.520;13.434;2022-08-04T14:54:24;51.08;;;23.95;;
37885;SDS011;23726;52.520;13.434;2022-08-04T14:56:56;53.50;;;23.65;;
37885;SDS011;23726;52.520;13.434;2022-08-04T14:59:25;59.75;;;23.98;;
37885;SDS011;23726;52.520;13.434;2022-08-04T15:01:51;59.15;;;25.02;;
37885;SDS011;23726;52.520;13.434;2022-08-04T15:04:18;58.67;;;24.17;;
37885;SDS011;23726;52.520;13.434;2022-08-04T15:06:48;55.15;;;22.90;;
37885;SDS011;23726;52.520;13.434;2022-08-04T15:09:15;54.10;;;22.60;;
37885;SDS011;23726;52.520;13.434;2022-08-04T15:11:41;55.08;;;23.95;;
37885;SDS011;23726;52.520;13.434;2022-08-04T15:14:07;49.15;;;22.58;;
37885;SDS011;23726;52.520;13.434;2022-08-04T15:16:32;53.20;;;22.55;;
37885;SDS011;23726;52.520;13.434;2022-08-04T15:18:59;47.03;;;21.98;;
37885;SDS011;23726;52.520;13.434;2022-08-04T15:21:27;49.92;;;22.55;;
37885;SDS011;23726;52.520;13.434;2022-08-04T15:23:54;51.03;;;22.67;;
37885;SDS011;23726;52.520;13.434;2022-08-04T15:29:07;54.08;;;22.92;;
37885;SDS011;23726;52.520;13.434;2022-08-04T15:31:43;52.80;;;22.70;;
37885;SDS011;23726;52.520;13.434;2022-08-04T15:34:10;52.45;;;22.40;;
37885;SDS011;23726;52.520;13.434;2022-08-04T15:36:41;50.72;;;21.98;;
37885;SDS011;23726;52.520;13.434;2022-08-04T15:39:17;46.15;;;21.88;;
37885;SDS011;23726;52.520;13.434;2022-08-04T15:42:11;44.45;;;21.70;;
37885;SDS011;23726;52.520;13.434;2022-08-04T15:45:11;46.28;;;21.60;;
37885;SDS011;23726;52.520;13.434;2022-08-04T15:48:33;48.08;;;20.73;;
37885;SDS011;23726;52.520;13.434;2022-08-04T15:50:58;51.20;;;20.80;;
37885;SDS011;23726;52.520;13.434;2022-08-04T15:53:30;45.85;;;20.98;;
37885;SDS011;23726;52.520;13.434;2022-08-04T15:58:49;48.13;;;21.02;;
37885;SDS011;23726;52.520;13.434;2022-08-04T16:01:15;48.13;;;20.88;;
37885;SDS011;23726;52.520;13.434;2022-08-04T16:03:43;47.42;;;21.15;;
37885;SDS011;23726;52.520;13.434;2022-08-04T16:11:35;46.47;;;21.30;;
37885;SDS011;23726;52.520;13.434;2022-08-04T16:19:03;45.17;;;21.02;;
37885;SDS011;23726;52.520;13.434;2022-08-04T16:21:31;45.92;;;20.83;;
37885;SDS011;23726;52.520;13.434;2022-08-04T16:26:45;43.05;;;19.38;;
37885;SDS011;23726;52.520;13.434;2022-08-04T16:29:30;44.45;;;21.30;;
37885;SDS011;23726;52.520;13.434;2022-08-04T16:37:14;41.10;;;19.27;;
37885;SDS011;23726;52.520;13.434;2022-08-04T16:39:41;41.47;;;19.73;;
37885;SDS011;23726;52.520;13.434;2022-08-04T16:50:15;41.25;;;19.42;;
37885;SDS011;23726;52.520;13.434;2022-08-04T16:52:47;41.45;;;19.15;;
37885;SDS011;23726;52.520;13.434;2022-08-04T16:55:17;39.25;;;19.10;;
37885;SDS011;23726;52.520;13.434;2022-08-04T16:57:48;41.63;;;19.70;;
37885;SDS011;23726;52.520;13.434;2022-08-04T17:00:16;43.38;;;19.92;;
37885;SDS011;23726;52.520;13.434;2022-08-04T17:02:42;41.78;;;19.13;;
37885;SDS011;23726;52.520;13.434;2022-08-04T17:05:20;36.75;;;18.50;;
37885;SDS011;23726;52.520;13.434;2022-08-04T17:07:57;36.10;;;18.52;;
37885;SDS011;23726;52.520;13.434;2022-08-04T17:13:00;35.58;;;18.20;;
37885;SDS011;23726;52.520;13.434;2022-08-04T17:15:26;38.40;;;19.15;;
37885;SDS011;23726;52.520;13.434;2022-08-04T17:18:12;35.97;;;18.20;;
37885;SDS011;23726;52.520;13.434;2022-08-04T17:20:42;36.50;;;18.95;;
37885;SDS011;23726;52.520;13.434;2022-08-04T17:23:24;40.30;;;18.75;;
37885;SDS011;23726;52.520;13.434;2022-08-04T17:26:18;34.47;;;17.92;;
37885;SDS011;23726;52.520;13.434;2022-08-04T17:28:49;35.83;;;18.15;;
37885;SDS011;23726;52.520;13.434;2022-08-04T17:31:17;35.15;;;17.40;;
37885;SDS011;23726;52.520;13.434;2022-08-04T17:33:43;39.63;;;18.65;;
37885;SDS011;23726;52.520;13.434;2022-08-04T17:36:10;34.42;;;17.45;;
37885;SDS011;23726;52.520;13.434;2022-08-04T17:38:37;38.65;;;19.05;;
37885;SDS011;23726;52.520;13.434;2022-08-04T17:41:10;36.78;;;18.23;;
37885;SDS011;23726;52.520;13.434;2022-08-04T17:43:51;38.92;;;18.67;;
37885;SDS011;23726;52.520;13.434;2022-08-04T17:51:32;34.05;;;17.58;;
37885;SDS011;23726;52.520;13.434;2022-08-04T17:54:11;36.90;;;17.92;;
37885;SDS011;23726;52.520;13.434;2022-08-04T17:56:39;34.50;;;17.35;;
37885;SDS011;23726;52.520;13.434;2022-08-04T18:04:30;37.80;;;18.27;;
37885;SDS011;23726;52.520;13.434;2022-08-04T18:07:08;31.92;;;16.73;;
37885;SDS011;23726;52.520;13.434;2022-08-04T18:09:38;33.25;;;16.42;;
37885;SDS011;23726;52.520;13.434;2022-08-04T18:12:11;37.35;;;18.08;;
37885;SDS011;23726;52.520;13.434;2022-08-04T18:14:46;31.75;;;16.60;;
37885;SDS011;23726;52.520;13.434;2022-08-04T18:17:14;32.78;;;17.20;;
37885;SDS011;23726;52.520;13.434;2022-08-04T18:19:54;33.60;;;17.23;;
37885;SDS011;23726;52.520;13.434;2022-08-04T18:22:22;35.40;;;17.00;;
37885;SDS011;23726;52.520;13.434;2022-08-04T18:24:47;34.17;;;16.63;;
37885;SDS011;23726;52.520;13.434;2022-08-04T18:27:13;34.47;;;16.70;;
37885;SDS011;23726;52.520;13.434;2022-08-04T18:29:41;33.13;;;17.08;;
37885;SDS011;23726;52.520;13.434;2022-08-04T18:32:07;36.10;;;17.23;;
37885;SDS011;23726;52.520;13.434;2022-08-04T18:34:34;32.03;;;16.95;;
37885;SDS011;23726;52.520;13.434;2022-08-04T18:37:00;29.70;;;16.45;;
37885;SDS011;23726;52.520;13.434;2022-08-04T18:39:26;32.95;;;16.83;;
37885;SDS011;23726;52.520;13.434;2022-08-04T18:41:54;29.73;;;16.38;;
37885;SDS011;23726;52.520;13.434;2022-08-04T18:44:20;34.05;;;17.00;;
37885;SDS011;23726;52.520;13.434;2022-08-04T18:46:46;29.67;;;16.13;;
37885;SDS011;23726;52.520;13.434;2022-08-04T18:49:12;32.63;;;16.45;;
37885;SDS011;23726;52.520;13.434;2022-08-04T18:51:38;29.92;;;16.15;;
37885;SDS011;23726;52.520;13.434;2022-08-04T18:54:04;30.05;;;15.82;;
37885;SDS011;23726;52.520;13.434;2022-08-04T18:56:30;31.60;;;16.25;;
37885;SDS011;23726;52.520;13.434;2022-08-04T18:58:56;29.38;;;16.40;;
37885;SDS011;23726;52.520;13.434;2022-08-04T19:01:22;30.13;;;16.35;;
37885;SDS011;23726;52.520;13.434;2022-08-04T19:03:47;29.02;;;15.30;;